METAR Data
IDs: Format: Raw Decoded Include TAF

Data at: 0859 UTC 26 May 2019

TIST 260853Z AUTO 08005KT 10SM CLR 26/22 A2995 RMK AO2 SLP141 T02610222 55001 $